Aérodrome :
LOGIN :

S'inscrire | Disclaimer

   EN    FR    IT 

 










Légende :    VFR   VFR Marginal   IFR   IFR Intensif   IFR Très Intensif
Visi : 
Plafond : 
>= 8 km
>= 3000ft
5 à 8 km
1000 à 3000 ft
1500m à 5 km
500 à 1000 ft
800 à 1500m
200 à 500 ft
< 800m
< 200 ft
Symboles :   Orages  Brouillard  Fortes neiges  Fortes précipitations  Vent > 20 kt
SIGMETs :   Divers  Orages  Givrage  Turbulence  Onde Orograph.  Cendres Volcan.







- Altitude de l'aérodrome : 505 ft
- Code IATA : SXB
- Voir les cartes d'approche


LFST - Strasbourg

DERNIER METAR :
  • 280730Z AUTO 18014KT 9999 FEW012 OVC036 04/02 Q1000 NOSIG

METARs EXPIRÉS :
  • 280700Z AUTO 18014KT 9999 FEW012 OVC038 04/02 Q1000 NOSIG
  • 280630Z AUTO 18015KT 9999 SCT011 OVC039 04/02 Q1000 BECMG 18010G20KT
  • 280600Z AUTO 19012KT 9999 SCT010 BKN039 BKN190 03/02 Q1000 NOSIG
  • 280530Z AUTO 18015KT 9999 SCT010 BKN130 BKN190 03/02 Q0999 BECMG 18010G20KT
  • 280500Z AUTO 18016KT 9999 BKN011 BKN019 BKN041 04/02 Q1000 BECMG 17010G20KT BKN035
  • 280430Z AUTO 18014KT 9999 FEW012 SCT025 BKN040 05/03 Q0999 NOSIG

TAF TAF LFST
Valide du 28 à 06h jusqu'au 01 à 06h UTC


280500Z 2806/0106 18010G20KT 9999 SCT040
TEMPO 2812/2819 22015G30KT 4000 SHRA BKN020 SCT025CB
PROB30
TEMPO 2814/2818 2000 TSRAGS
PROB40
TEMPO 0102/0106 -SHRA BKN014
Pas de NOTAMs connus pour ce terrain.



MET'MAP, la Météo Aéronautique d'un coup d'oeil ! - Copyright ORBIFLY Décembre 2007 - Disclaimer

ORBIFLY MET'MAP TEAM :

Programmation & Développement : Alexandra Zaïnal
Conception & Développement : Baudouin d'Aumeries
Co-Programmation & Développement : Marc-Olivier Méhu
Soutien technique & logistique : Manuel Goepfert

Contact : metmap@orbifly.com




SOURCES & CREDITS :

   NOAA